Kangshan, Taiwan
Current Conditions -  °F | °C
As of 2:30 PM on Wednesday 22 Oct 2014 (Local Time) from RCKH Reporting Station
Scattered Clouds Scattered Clouds  
Wind Chill: 88°   Ceiling: Unl
Heat Index: 93°   Visibility: 5mi
Dew Point: 70°   Wind: 12mph
Humidity: 55%   Direction: 300°WNW
Pressure: 29.88"   Gusts: NA
Location:  22.8°N, 120.27°E
Report Text: RCKH 220630Z 30010KT 8000 FEW016 SCT120 31/21 Q1012 NOSIGRMK 32012KT/R09 A2991
Loading
Personal Weather Stations






























Interactive Weather Map
Tropical Storm Tracking
New forecast layout! Learn more

10-Day Weather Forecast

Advertisements
Track Severe Weather on mobile